createdAt,value
2023-03-06T00:00:51.770Z,89.95
2023-03-06T00:01:51.700Z,90.16
2023-03-06T00:02:52.282Z,90.06
2023-03-06T00:03:52.764Z,90.26
2023-03-06T00:04:51.644Z,90.16
2023-03-06T00:05:51.759Z,90.47
2023-03-06T00:06:51.910Z,90.26
2023-03-06T00:07:51.763Z,90.47
2023-03-06T00:08:51.571Z,90.47
2023-03-06T00:09:51.577Z,90.12
2023-03-06T00:10:51.633Z,90.26
2023-03-06T00:11:51.585Z,90.16
2023-03-06T00:12:51.614Z,90.37
2023-03-06T00:13:51.550Z,90.16
2023-03-06T00:14:51.532Z,90.26
2023-03-06T00:15:51.732Z,89.92
2023-03-06T00:16:52.657Z,90.06
2023-03-06T00:17:51.511Z,90.06
2023-03-06T00:18:51.622Z,90.16
2023-03-06T00:19:51.467Z,90.26
2023-03-06T00:20:51.557Z,90.62
2023-03-06T00:21:51.560Z,90.58
2023-03-06T00:22:51.593Z,90.89
2023-03-06T00:23:51.576Z,91.20
2023-03-06T00:24:51.548Z,91.41
2023-03-06T00:25:51.546Z,91.20
2023-03-06T00:26:51.543Z,91.00
2023-03-06T00:27:51.632Z,91.10
2023-03-06T00:28:51.587Z,90.69
2023-03-06T00:29:51.393Z,90.47
2023-03-06T00:30:51.428Z,90.02
2023-03-06T00:31:52.374Z,90.06
2023-03-06T00:32:51.849Z,90.02
2023-03-06T00:33:51.440Z,90.16
2023-03-06T00:34:51.407Z,90.26
2023-03-06T00:35:51.408Z,90.16
2023-03-06T00:36:51.406Z,90.16
2023-03-06T00:37:51.418Z,90.58
2023-03-06T00:38:51.485Z,90.72
2023-03-06T00:39:51.497Z,90.93
2023-03-06T00:40:51.382Z,91.00
2023-03-06T00:41:51.397Z,90.89
2023-03-06T00:42:51.412Z,91.25
2023-03-06T00:43:51.405Z,91.66
2023-03-06T00:44:51.376Z,91.46
2023-03-06T00:45:51.494Z,91.66
2023-03-06T00:46:51.391Z,92.18
2023-03-06T00:47:51.676Z,92.08
2023-03-06T00:48:51.303Z,92.18
2023-03-06T00:49:51.279Z,91.87
2023-03-06T00:50:51.494Z,92.08
2023-03-06T00:51:51.246Z,92.08
2023-03-06T00:52:51.239Z,92.08
2023-03-06T00:53:51.250Z,91.56
2023-03-06T00:54:51.309Z,91.72
2023-03-06T00:55:51.239Z,91.77
2023-03-06T00:56:51.387Z,91.87
2023-03-06T00:57:51.319Z,91.66
2023-03-06T00:58:51.291Z,91.56
2023-03-06T00:59:51.264Z,91.62
2023-03-06T01:00:51.360Z,91.56
2023-03-06T01:01:51.327Z,91.72
2023-03-06T01:02:51.322Z,91.83
2023-03-06T01:03:52.264Z,91.62
2023-03-06T01:04:51.237Z,91.72
2023-03-06T01:05:51.317Z,91.62
2023-03-06T01:06:51.229Z,91.00
2023-03-06T01:07:51.251Z,91.00
2023-03-06T01:08:51.248Z,91.41
2023-03-06T01:09:51.317Z,91.47
2023-03-06T01:10:51.205Z,90.85
2023-03-06T01:11:51.532Z,91.10
2023-03-06T01:12:51.115Z,90.54
2023-03-06T01:13:52.207Z,90.64
2023-03-06T01:14:51.131Z,90.89
2023-03-06T01:15:51.154Z,91.31
2023-03-06T01:16:51.306Z,91.52
2023-03-06T01:17:51.159Z,90.79
2023-03-06T01:18:51.140Z,91.06
2023-03-06T01:19:51.098Z,91.16
2023-03-06T01:20:51.191Z,91.20
2023-03-06T01:21:51.102Z,90.95
2023-03-06T01:22:51.168Z,91.52
2023-03-06T01:23:51.101Z,91.41
2023-03-06T01:24:51.104Z,91.10
2023-03-06T01:25:51.044Z,91.20
2023-03-06T01:26:50.993Z,91.16
2023-03-06T01:27:51.077Z,91.31
2023-03-06T01:28:51.140Z,90.79
2023-03-06T01:29:51.003Z,91.31
2023-03-06T01:30:51.080Z,91.20
2023-03-06T01:31:52.134Z,91.10
2023-03-06T01:32:51.055Z,90.89
2023-03-06T01:33:51.079Z,91.31
2023-03-06T01:34:51.060Z,91.20
2023-03-06T01:35:51.084Z,92.08
2023-03-06T01:36:51.003Z,92.18
2023-03-06T01:37:51.085Z,91.87
2023-03-06T01:38:51.970Z,92.08
2023-03-06T01:39:51.083Z,92.14
2023-03-06T01:40:50.937Z,92.24
2023-03-06T01:41:50.916Z,92.18
2023-03-06T01:42:50.914Z,92.24
2023-03-06T01:43:51.066Z,92.39
2023-03-06T01:44:50.904Z,92.08
2023-03-06T01:45:50.949Z,92.39
2023-03-06T01:46:50.903Z,91.52
2023-03-06T01:47:50.921Z,91.87
2023-03-06T01:48:50.970Z,91.66
2023-03-06T01:49:51.004Z,92.03
2023-03-06T01:50:51.600Z,92.03
2023-03-06T01:51:51.933Z,92.03
2023-03-06T01:52:50.933Z,91.62
2023-03-06T01:53:50.989Z,91.83
2023-03-06T01:54:50.942Z,92.14
2023-03-06T01:55:50.895Z,92.03
2023-03-06T01:56:50.968Z,92.03
2023-03-06T01:57:50.982Z,92.14
2023-03-06T01:58:50.930Z,92.03
2023-03-06T01:59:50.846Z,92.03
2023-03-06T02:00:51.014Z,91.62
2023-03-06T02:01:50.765Z,91.62
2023-03-06T02:02:50.811Z,91.83
2023-03-06T02:03:50.823Z,91.72
2023-03-06T02:04:50.853Z,91.41
2023-03-06T02:05:50.831Z,91.72
2023-03-06T02:06:50.812Z,91.62
2023-03-06T02:07:50.816Z,91.72
2023-03-06T02:08:50.826Z,91.62
2023-03-06T02:09:50.786Z,91.93
2023-03-06T02:10:50.784Z,91.72
2023-03-06T02:11:50.810Z,91.72
2023-03-06T02:12:50.795Z,91.83
2023-03-06T02:13:50.785Z,91.52
2023-03-06T02:14:50.792Z,91.62
2023-03-06T02:15:50.752Z,91.72
2023-03-06T02:16:51.231Z,91.62
2023-03-06T02:17:50.736Z,91.62
2023-03-06T02:19:11.656Z,91.83
2023-03-06T02:19:50.674Z,91.10
2023-03-06T02:20:50.648Z,91.66
2023-03-06T02:21:50.653Z,91.87
2023-03-06T02:22:50.681Z,92.29
2023-03-06T02:23:50.645Z,92.49
2023-03-06T02:24:50.621Z,92.49
2023-03-06T02:25:51.680Z,92.70
2023-03-06T02:26:50.576Z,91.87
2023-03-06T02:27:50.846Z,92.18
2023-03-06T02:28:50.688Z,91.77
2023-03-06T02:29:50.655Z,91.87
2023-03-06T02:30:50.817Z,91.41
2023-03-06T02:31:50.681Z,91.72
2023-03-06T02:32:50.641Z,91.83
2023-03-06T02:33:50.664Z,91.10
2023-03-06T02:34:50.696Z,91.62
2023-03-06T02:35:50.689Z,91.62
2023-03-06T02:36:50.630Z,91.41
2023-03-06T02:37:50.607Z,91.62
2023-03-06T02:38:50.683Z,91.83
2023-03-06T02:39:50.509Z,91.41
2023-03-06T02:40:50.510Z,91.83
2023-03-06T02:41:50.623Z,91.87
2023-03-06T02:42:50.526Z,92.14
2023-03-06T02:43:50.512Z,91.52
2023-03-06T02:44:50.563Z,91.72
2023-03-06T02:45:50.600Z,91.56
2023-03-06T02:46:50.627Z,91.66
2023-03-06T02:47:50.558Z,92.03
2023-03-06T02:48:50.594Z,92.55
2023-03-06T02:49:50.626Z,92.14
2023-03-06T02:50:50.627Z,92.03
2023-03-06T02:51:50.504Z,92.14
2023-03-06T02:52:50.578Z,92.03
2023-03-06T02:53:50.528Z,92.03
2023-03-06T02:54:50.524Z,91.52
2023-03-06T02:55:50.538Z,92.14
2023-03-06T02:56:50.448Z,92.03
2023-03-06T02:57:50.380Z,91.72
2023-03-06T02:58:50.426Z,91.52
2023-03-06T02:59:50.406Z,91.83
2023-03-06T03:00:50.426Z,92.08
2023-03-06T03:01:51.553Z,92.29
2023-03-06T03:02:50.377Z,92.39
2023-03-06T03:03:50.429Z,92.29
2023-03-06T03:04:50.508Z,93.01
2023-03-06T03:05:50.485Z,93.01
2023-03-06T03:06:50.439Z,92.70
2023-03-06T03:07:50.434Z,92.39
2023-03-06T03:08:50.420Z,92.91
2023-03-06T03:09:50.421Z,93.07
2023-03-06T03:10:50.382Z,93.43
2023-03-06T03:11:50.494Z,93.33
2023-03-06T03:12:50.366Z,93.29
2023-03-06T03:13:50.273Z,93.43
2023-03-06T03:14:50.253Z,93.23
2023-03-06T03:15:50.381Z,93.43
2023-03-06T03:16:50.532Z,93.39
2023-03-06T03:17:50.268Z,93.12
2023-03-06T03:18:50.240Z,93.29
2023-03-06T03:19:50.230Z,93.12
2023-03-06T03:20:50.352Z,93.33
2023-03-06T03:21:50.318Z,93.01
2023-03-06T03:22:50.358Z,93.23
2023-03-06T03:23:50.356Z,93.54
2023-03-06T03:24:50.358Z,93.74
2023-03-06T03:25:50.313Z,93.79
2023-03-06T03:26:50.330Z,93.85
2023-03-06T03:27:50.313Z,93.74
2023-03-06T03:28:50.250Z,93.85
2023-03-06T03:29:50.267Z,93.85
2023-03-06T03:30:50.375Z,93.85
2023-03-06T03:31:50.221Z,93.95
2023-03-06T03:32:50.142Z,93.49
2023-03-06T03:33:50.177Z,93.60
2023-03-06T03:34:50.337Z,93.29
2023-03-06T03:35:50.228Z,93.29
2023-03-06T03:36:51.259Z,93.18
2023-03-06T03:37:50.196Z,93.18
2023-03-06T03:38:50.286Z,93.29
2023-03-06T03:39:50.187Z,93.18
2023-03-06T03:40:50.189Z,93.29
2023-03-06T03:41:50.199Z,93.29
2023-03-06T03:42:50.186Z,93.07
2023-03-06T03:43:50.207Z,93.18
2023-03-06T03:44:50.189Z,93.54
2023-03-06T03:45:50.119Z,93.80
2023-03-06T03:46:50.207Z,93.80
2023-03-06T03:47:50.119Z,93.60
2023-03-06T03:48:50.108Z,93.70
2023-03-06T03:49:50.091Z,93.66
2023-03-06T03:50:50.021Z,93.39
2023-03-06T03:51:50.109Z,93.24
2023-03-06T03:52:50.027Z,93.45
2023-03-06T03:53:50.048Z,93.45
2023-03-06T03:54:50.010Z,93.35
2023-03-06T03:55:50.021Z,92.93
2023-03-06T03:56:49.989Z,93.60
2023-03-06T03:57:50.134Z,93.49
2023-03-06T03:58:50.045Z,93.70
2023-03-06T03:59:50.087Z,93.39
2023-03-06T04:00:50.097Z,93.29
2023-03-06T04:01:50.058Z,93.91
2023-03-06T04:02:50.003Z,94.32
2023-03-06T04:03:49.989Z,94.12
2023-03-06T04:04:50.044Z,94.64
2023-03-06T04:05:49.976Z,94.70
2023-03-06T04:06:50.062Z,94.22
2023-03-06T04:07:49.984Z,94.22
2023-03-06T04:08:49.963Z,94.12
2023-03-06T04:09:49.970Z,94.22
2023-03-06T04:10:49.869Z,94.18
2023-03-06T04:11:49.901Z,94.12
2023-03-06T04:12:49.865Z,94.22
2023-03-06T04:13:49.861Z,93.87
2023-03-06T04:14:49.985Z,94.32
2023-03-06T04:15:49.854Z,94.32
2023-03-06T04:16:49.820Z,94.22
2023-03-06T04:17:50.205Z,94.53
2023-03-06T04:18:49.973Z,94.95
2023-03-06T04:19:49.782Z,94.84
2023-03-06T04:20:49.936Z,94.95
2023-03-06T04:21:49.901Z,95.26
2023-03-06T04:22:49.912Z,95.26
2023-03-06T04:23:49.904Z,95.05
2023-03-06T04:24:49.869Z,95.47
2023-03-06T04:25:49.865Z,95.26
2023-03-06T04:26:49.928Z,95.15
2023-03-06T04:27:49.888Z,94.84
2023-03-06T04:28:49.864Z,95.26
2023-03-06T04:29:49.731Z,95.15
2023-03-06T04:30:49.762Z,95.15
2023-03-06T04:31:49.797Z,95.15
2023-03-06T04:32:49.749Z,95.05
2023-03-06T04:33:49.889Z,95.05
2023-03-06T04:34:49.847Z,95.15
2023-03-06T04:35:49.897Z,95.26
2023-03-06T04:36:49.844Z,95.26
2023-03-06T04:37:49.762Z,95.47
2023-03-06T04:38:49.775Z,95.15
2023-03-06T04:39:49.901Z,95.09
2023-03-06T04:40:49.793Z,95.05
2023-03-06T04:41:49.788Z,95.30
2023-03-06T04:42:49.807Z,95.30
2023-03-06T04:43:49.821Z,95.15
2023-03-06T04:44:49.783Z,96.14
2023-03-06T04:45:49.787Z,95.99
2023-03-06T04:46:49.723Z,95.99
2023-03-06T04:47:49.687Z,95.26
2023-03-06T04:48:49.637Z,95.40
2023-03-06T04:49:49.611Z,95.30
2023-03-06T04:50:49.719Z,96.14
2023-03-06T04:51:49.612Z,95.83
2023-03-06T04:52:49.610Z,96.24
2023-03-06T04:53:49.602Z,96.55
2023-03-06T04:54:49.602Z,97.17
2023-03-06T04:55:49.624Z,96.97
2023-03-06T04:56:49.541Z,96.55
2023-03-06T04:57:49.664Z,97.59
2023-03-06T04:58:49.650Z,97.28
2023-03-06T04:59:49.649Z,97.28
2023-03-06T05:00:49.804Z,97.22
2023-03-06T05:01:49.656Z,97.28
2023-03-06T05:02:49.666Z,97.43
2023-03-06T05:03:49.641Z,97.59
2023-03-06T05:04:49.687Z,97.59
2023-03-06T05:05:49.588Z,97.33
2023-03-06T05:06:49.682Z,97.43
2023-03-06T05:07:49.579Z,97.28
2023-03-06T05:08:49.682Z,96.91
2023-03-06T05:09:49.570Z,96.55
2023-03-06T05:10:49.572Z,96.86
2023-03-06T05:11:49.587Z,97.17
2023-03-06T05:12:49.554Z,97.38
2023-03-06T05:13:49.463Z,97.17
2023-03-06T05:14:49.443Z,96.66
2023-03-06T05:15:49.454Z,95.93
2023-03-06T05:16:49.447Z,97.43
2023-03-06T05:17:49.772Z,97.12
2023-03-06T05:18:50.658Z,96.59
2023-03-06T05:20:09.322Z,97.33
2023-03-06T05:20:49.414Z,97.64
2023-03-06T05:21:49.453Z,96.91
2023-03-06T05:22:49.483Z,97.85
2023-03-06T05:23:49.400Z,96.86
2023-03-06T05:24:49.705Z,97.22
2023-03-06T05:25:49.557Z,97.43
2023-03-06T05:26:49.481Z,97.33
2023-03-06T05:27:49.604Z,97.68
2023-03-06T05:28:49.517Z,97.89
2023-03-06T05:29:49.509Z,97.89
2023-03-06T05:30:49.489Z,97.85
2023-03-06T05:31:49.624Z,97.95
2023-03-06T05:32:49.580Z,97.95
2023-03-06T05:33:49.488Z,97.95
2023-03-06T05:34:49.477Z,98.05
2023-03-06T05:35:49.671Z,97.74
2023-03-06T05:36:49.451Z,97.85
2023-03-06T05:37:49.443Z,98.16
2023-03-06T05:38:49.459Z,97.95
2023-03-06T05:39:49.465Z,97.85
2023-03-06T05:40:49.498Z,97.64
2023-03-06T05:41:49.413Z,97.85
2023-03-06T05:42:49.369Z,97.64
2023-03-06T05:43:49.337Z,97.74
2023-03-06T05:44:49.573Z,97.85
2023-03-06T05:45:49.456Z,98.16
2023-03-06T05:46:49.354Z,97.95
2023-03-06T05:47:49.344Z,98.36
2023-03-06T05:48:49.375Z,98.16
2023-03-06T05:49:49.499Z,98.36
2023-03-06T05:50:49.313Z,98.36
2023-03-06T05:51:49.421Z,98.36
2023-03-06T05:52:49.552Z,98.36
2023-03-06T05:53:49.499Z,98.11
2023-03-06T05:54:49.366Z,98.11
2023-03-06T05:55:49.408Z,98.32
2023-03-06T05:56:49.342Z,97.49
2023-03-06T05:57:49.276Z,97.64
2023-03-06T05:58:49.394Z,98.11
2023-03-06T05:59:49.265Z,97.49
2023-03-06T06:00:49.300Z,97.91
2023-03-06T06:01:49.389Z,97.49
2023-03-06T06:02:49.357Z,97.80
2023-03-06T06:03:49.272Z,97.49
2023-03-06T06:04:49.277Z,97.65
2023-03-06T06:05:49.259Z,97.75
2023-03-06T06:06:49.259Z,97.44
2023-03-06T06:07:49.383Z,97.13
2023-03-06T06:08:49.214Z,97.13
2023-03-06T06:09:49.123Z,97.03
2023-03-06T06:10:51.448Z,97.65
2023-03-06T06:11:49.295Z,96.51
2023-03-06T06:12:49.203Z,97.65
2023-03-06T06:13:50.769Z,96.72
2023-03-06T06:14:49.078Z,97.24
2023-03-06T06:15:49.274Z,96.88
2023-03-06T06:16:49.266Z,96.92
2023-03-06T06:17:49.396Z,97.55
2023-03-06T06:18:49.164Z,96.98
2023-03-06T06:19:49.122Z,96.51
2023-03-06T06:20:49.300Z,95.94
2023-03-06T06:21:49.198Z,96.92
2023-03-06T06:22:49.591Z,96.92
2023-03-06T06:23:49.199Z,96.15
2023-03-06T06:24:49.136Z,96.67
2023-03-06T06:25:49.247Z,95.94
2023-03-06T06:26:49.258Z,95.32
2023-03-06T06:27:49.073Z,95.53
2023-03-06T06:28:49.157Z,95.01
2023-03-06T06:29:49.187Z,94.96
2023-03-06T06:30:49.124Z,94.96
2023-03-06T06:31:49.033Z,94.90
2023-03-06T06:32:49.036Z,94.90
2023-03-06T06:33:49.009Z,95.11
2023-03-06T06:34:49.846Z,95.07
2023-03-06T06:35:49.016Z,95.17
2023-03-06T06:36:50.502Z,94.90
2023-03-06T06:37:48.963Z,94.07
2023-03-06T06:38:48.909Z,94.24
2023-03-06T06:39:49.058Z,93.87
2023-03-06T06:41:11.666Z,94.64
2023-03-06T06:42:05.903Z,95.36
2023-03-06T06:42:50.959Z,95.11
2023-03-06T06:43:49.723Z,95.01
2023-03-06T06:44:49.037Z,95.05
2023-03-06T06:45:49.716Z,94.84
2023-03-06T06:47:21.403Z,95.36
2023-03-06T06:47:51.119Z,96.09
2023-03-06T06:48:48.955Z,96.09
2023-03-06T06:49:48.972Z,96.92
2023-03-06T06:50:49.028Z,97.24
2023-03-06T06:51:48.940Z,97.75
2023-03-06T06:52:48.996Z,97.13
2023-03-06T06:53:48.940Z,96.92
2023-03-06T06:54:55.254Z,96.76
2023-03-06T06:55:49.044Z,97.75
2023-03-06T06:56:49.023Z,97.17
2023-03-06T06:57:49.178Z,97.28
2023-03-06T06:58:49.604Z,97.17
2023-03-06T06:59:50.115Z,97.59
2023-03-06T07:00:48.755Z,97.59
2023-03-06T07:01:49.134Z,97.49
2023-03-06T07:02:48.762Z,97.55
2023-03-06T07:03:48.873Z,97.55
2023-03-06T07:05:02.461Z,97.03
2023-03-06T07:05:50.731Z,96.86
2023-03-06T07:06:48.766Z,97.38
2023-03-06T07:07:48.818Z,96.86
2023-03-06T07:08:48.780Z,97.49
2023-03-06T07:09:48.796Z,96.76
2023-03-06T07:10:48.770Z,97.75
2023-03-06T07:11:49.848Z,97.80
2023-03-06T07:12:48.874Z,96.66
2023-03-06T07:13:48.785Z,97.28
2023-03-06T07:14:48.909Z,97.44
2023-03-06T07:15:48.782Z,97.44
2023-03-06T07:16:48.752Z,96.92
2023-03-06T07:17:50.324Z,97.55
2023-03-06T07:18:49.748Z,96.61
2023-03-06T07:19:48.629Z,96.98
2023-03-06T07:20:48.896Z,97.24
2023-03-06T07:21:48.736Z,97.65
2023-03-06T07:22:51.726Z,96.92
2023-03-06T07:23:49.742Z,97.09
2023-03-06T07:24:49.257Z,96.67
2023-03-06T07:25:49.324Z,97.75
2023-03-06T07:26:48.628Z,96.88
2023-03-06T07:27:53.448Z,96.78
2023-03-06T07:28:52.817Z,97.71
2023-03-06T07:29:49.704Z,97.40
2023-03-06T07:30:48.926Z,97.81
2023-03-06T07:31:48.689Z,97.61
2023-03-06T07:32:48.643Z,97.09
2023-03-06T07:33:48.709Z,97.19
2023-03-06T07:34:48.646Z,96.78
2023-03-06T07:35:48.677Z,96.57
2023-03-06T07:36:48.581Z,96.25
2023-03-06T07:37:48.631Z,96.36
2023-03-06T07:38:48.687Z,96.00
2023-03-06T07:39:48.811Z,95.90
2023-03-06T07:41:22.499Z,96.00
2023-03-06T07:41:48.827Z,96.62
2023-03-06T07:42:48.717Z,95.69
2023-03-06T07:43:48.726Z,95.38
2023-03-06T07:44:49.294Z,95.17
2023-03-06T07:45:48.453Z,94.82
2023-03-06T07:46:48.609Z,95.03
2023-03-06T07:47:48.562Z,95.23
2023-03-06T07:48:49.540Z,94.71
2023-03-06T07:49:48.417Z,94.57
2023-03-06T07:50:48.574Z,94.71
2023-03-06T07:51:48.613Z,94.67
2023-03-06T07:52:48.573Z,94.26
2023-03-06T07:53:48.470Z,93.95
2023-03-06T07:54:48.499Z,94.05
2023-03-06T07:55:48.542Z,93.90
2023-03-06T07:56:48.462Z,93.90
2023-03-06T07:57:48.530Z,94.05
2023-03-06T07:58:48.449Z,94.01
2023-03-06T07:59:48.413Z,94.32
2023-03-06T08:00:48.391Z,94.01
2023-03-06T08:01:48.478Z,93.80
2023-03-06T08:02:48.409Z,92.97
2023-03-06T08:03:48.395Z,93.07
2023-03-06T08:04:48.310Z,93.07
2023-03-06T08:05:48.465Z,92.28
2023-03-06T08:06:49.345Z,91.55
2023-03-06T08:07:48.322Z,91.66
2023-03-06T08:08:48.316Z,91.70
2023-03-06T08:09:48.268Z,92.18
2023-03-06T08:10:48.658Z,91.66
2023-03-06T08:11:48.711Z,90.83
2023-03-06T08:12:48.357Z,91.45
2023-03-06T08:13:48.356Z,91.83
2023-03-06T08:14:48.488Z,91.72
2023-03-06T08:15:49.293Z,90.37
2023-03-06T08:16:48.289Z,90.27
2023-03-06T08:17:48.345Z,89.54
2023-03-06T08:18:48.285Z,89.13
2023-03-06T08:19:48.204Z,89.75
2023-03-06T08:20:48.308Z,90.23
2023-03-06T08:21:48.307Z,90.29
2023-03-06T08:22:48.792Z,90.19
2023-03-06T08:23:48.285Z,89.46
2023-03-06T08:24:48.346Z,89.42
2023-03-06T08:25:48.273Z,89.42
2023-03-06T08:26:48.321Z,88.59
2023-03-06T08:27:48.348Z,87.14
2023-03-06T08:28:48.321Z,86.52
2023-03-06T08:29:48.122Z,87.55
2023-03-06T08:30:48.130Z,88.13
2023-03-06T08:31:48.765Z,87.82
2023-03-06T08:32:48.121Z,87.88
2023-03-06T08:33:48.537Z,87.16
2023-03-06T08:34:48.159Z,86.13
2023-03-06T08:35:48.109Z,85.99
2023-03-06T08:36:48.063Z,86.36
2023-03-06T08:37:48.107Z,84.91
2023-03-06T08:38:48.073Z,84.97
2023-03-06T08:39:48.220Z,84.45
2023-03-06T08:40:48.180Z,84.45
2023-03-06T08:41:48.142Z,85.08
2023-03-06T08:42:48.104Z,83.15
2023-03-06T08:43:48.103Z,82.26
2023-03-06T08:44:48.172Z,82.36
2023-03-06T08:45:48.176Z,82.95
2023-03-06T08:46:48.116Z,82.22
2023-03-06T08:47:48.203Z,81.95
2023-03-06T08:48:48.079Z,81.54
2023-03-06T08:49:48.838Z,81.95
2023-03-06T08:50:48.101Z,80.60
2023-03-06T08:51:47.989Z,79.26
2023-03-06T08:52:47.979Z,79.98
2023-03-06T08:53:48.203Z,79.77
2023-03-06T08:54:47.950Z,78.02
2023-03-06T08:55:48.065Z,76.74
2023-03-06T08:56:48.099Z,75.91
2023-03-06T08:57:48.032Z,72.94
2023-03-06T08:58:48.125Z,73.67
2023-03-06T08:59:48.007Z,76.01
2023-03-06T09:00:48.182Z,74.67
2023-03-06T09:01:48.073Z,73.98
2023-03-06T09:02:48.123Z,74.19
2023-03-06T09:03:47.970Z,73.91
2023-03-06T09:04:47.983Z,74.40
2023-03-06T09:05:47.998Z,75.78
2023-03-06T09:06:48.052Z,75.78
2023-03-06T09:07:48.028Z,75.36
2023-03-06T09:08:48.037Z,75.26
2023-03-06T09:09:47.975Z,75.22
2023-03-06T09:10:48.102Z,75.74
2023-03-06T09:11:48.071Z,74.57
2023-03-06T09:12:50.871Z,75.29
2023-03-06T09:13:48.821Z,76.09
2023-03-06T09:14:48.789Z,75.57
2023-03-06T09:15:48.801Z,74.26
2023-03-06T09:16:47.990Z,74.57
2023-03-06T09:17:47.954Z,76.09
2023-03-06T09:18:47.895Z,74.26
2023-03-06T09:19:47.789Z,74.12
2023-03-06T09:20:47.833Z,71.84
2023-03-06T09:21:47.897Z,70.22
2023-03-06T09:22:48.062Z,71.36
2023-03-06T09:23:47.826Z,72.08
2023-03-06T09:24:47.916Z,69.74
2023-03-06T09:25:47.900Z,70.67
2023-03-06T09:26:49.854Z,71.29
2023-03-06T09:27:58.323Z,71.94
2023-03-06T09:28:49.796Z,71.81
2023-03-06T09:29:47.848Z,71.60
2023-03-06T09:30:47.903Z,71.22
2023-03-06T09:31:47.859Z,72.25
2023-03-06T09:32:48.424Z,72.15
2023-03-06T09:33:47.737Z,72.15
2023-03-06T09:34:47.667Z,72.98
2023-03-06T09:35:47.896Z,71.94
2023-03-06T09:36:56.487Z,72.46
2023-03-06T09:37:49.837Z,72.98
2023-03-06T09:38:47.931Z,72.50
2023-03-06T09:39:47.832Z,72.25
2023-03-06T09:40:47.741Z,72.46
2023-03-06T09:41:47.712Z,72.08
2023-03-06T09:42:47.817Z,72.88
2023-03-06T09:43:47.744Z,72.67
2023-03-06T09:44:47.893Z,72.71
2023-03-06T09:45:47.815Z,71.94
2023-03-06T09:46:47.649Z,71.43
2023-03-06T09:47:47.713Z,72.25
2023-03-06T09:48:47.652Z,71.43
2023-03-06T09:49:47.771Z,71.43
2023-03-06T09:50:47.662Z,72.36
2023-03-06T09:51:47.628Z,71.63
2023-03-06T09:52:47.661Z,71.91
2023-03-06T09:53:47.635Z,70.87
2023-03-06T09:54:47.592Z,71.60
2023-03-06T09:55:47.671Z,71.70
2023-03-06T09:56:47.562Z,72.64
2023-03-06T09:57:47.628Z,71.70
2023-03-06T09:58:47.509Z,69.95
2023-03-06T09:59:47.638Z,69.84
2023-03-06T10:00:47.627Z,69.43
2023-03-06T10:01:47.541Z,70.05
2023-03-06T10:02:47.692Z,71.29
2023-03-06T10:03:47.669Z,72.12
2023-03-06T10:04:47.672Z,71.91
2023-03-06T10:05:47.564Z,71.50
2023-03-06T10:06:47.643Z,69.74
2023-03-06T10:07:47.554Z,69.01
2023-03-06T10:08:48.537Z,69.46
2023-03-06T10:09:47.680Z,69.46
2023-03-06T10:10:47.497Z,69.98
2023-03-06T10:11:47.601Z,68.94
2023-03-06T10:12:47.525Z,68.53
2023-03-06T10:13:47.439Z,68.60
2023-03-06T10:14:49.257Z,67.46
2023-03-06T10:15:48.717Z,67.77
2023-03-06T10:16:47.415Z,68.67
2023-03-06T10:17:47.603Z,69.71
2023-03-06T10:18:47.475Z,67.22
2023-03-06T10:19:47.371Z,66.53
2023-03-06T10:20:47.525Z,67.74
2023-03-06T10:21:47.458Z,66.81
2023-03-06T10:22:58.526Z,67.09
2023-03-06T10:23:49.375Z,67.61
2023-03-06T10:24:47.430Z,67.19
2023-03-06T10:25:47.485Z,67.37
2023-03-06T10:26:47.572Z,65.72
2023-03-06T10:27:47.407Z,65.30
2023-03-06T10:28:47.528Z,66.51
2023-03-06T10:30:01.301Z,65.89
2023-03-06T10:30:49.433Z,65.79
2023-03-06T10:31:47.376Z,66.38
2023-03-06T10:32:49.039Z,65.34
2023-03-06T10:33:48.374Z,65.24
2023-03-06T10:34:47.298Z,65.66
2023-03-06T10:35:47.550Z,65.55
2023-03-06T10:36:47.259Z,64.96
2023-03-06T10:37:47.301Z,65.27
2023-03-06T10:38:47.794Z,65.95
2023-03-06T10:39:47.408Z,66.75
2023-03-06T10:40:47.381Z,67.06
2023-03-06T10:41:47.291Z,65.92
2023-03-06T10:42:47.368Z,64.99
2023-03-06T10:43:47.284Z,64.92
2023-03-06T10:44:47.432Z,65.95
2023-03-06T10:45:49.403Z,66.54
2023-03-06T10:46:48.318Z,66.33
2023-03-06T10:47:47.302Z,66.23
2023-03-06T10:48:47.357Z,65.51
2023-03-06T10:49:47.395Z,65.09
2023-03-06T10:50:47.230Z,65.82
2023-03-06T10:51:47.163Z,65.51
2023-03-06T10:52:47.188Z,66.88
2023-03-06T10:53:47.450Z,66.06
2023-03-06T10:54:47.193Z,66.47
2023-03-06T10:55:47.148Z,66.12
2023-03-06T10:56:47.122Z,66.53
2023-03-06T10:57:47.135Z,67.64
2023-03-06T10:58:47.074Z,66.42
2023-03-06T10:59:47.164Z,68.40
2023-03-06T11:00:47.336Z,67.67
2023-03-06T11:01:47.194Z,68.40
2023-03-06T11:02:47.251Z,67.46
2023-03-06T11:03:47.205Z,67.15
2023-03-06T11:04:47.352Z,67.15
2023-03-06T11:05:47.269Z,66.74
2023-03-06T11:06:47.257Z,66.53
2023-03-06T11:07:47.177Z,67.12
2023-03-06T11:08:47.134Z,68.98
2023-03-06T11:09:47.076Z,68.46
2023-03-06T11:10:47.129Z,67.02
2023-03-06T11:11:47.089Z,67.12
2023-03-06T11:12:47.050Z,67.54
2023-03-06T11:13:47.055Z,68.12
2023-03-06T11:14:47.135Z,67.19
2023-03-06T11:15:47.130Z,67.40
2023-03-06T11:16:47.188Z,67.37
2023-03-06T11:17:47.169Z,67.06
2023-03-06T11:18:47.071Z,66.54
2023-03-06T11:19:46.944Z,65.41
2023-03-06T11:20:53.214Z,66.75
2023-03-06T11:21:49.098Z,66.36
2023-03-06T11:22:49.069Z,66.57
2023-03-06T11:23:48.042Z,67.71
2023-03-06T11:24:47.046Z,66.57
2023-03-06T11:25:46.983Z,66.78
2023-03-06T11:26:47.118Z,66.47
2023-03-06T11:27:47.064Z,66.39
2023-03-06T11:28:47.013Z,67.33
2023-03-06T11:29:46.982Z,66.71
2023-03-06T11:30:46.989Z,66.42
2023-03-06T11:31:47.307Z,66.50
2023-03-06T11:32:46.892Z,67.15
2023-03-06T11:33:47.162Z,68.08
2023-03-06T11:34:49.172Z,68.80
2023-03-06T11:35:46.919Z,68.70
2023-03-06T11:36:46.910Z,68.60
2023-03-06T11:37:46.994Z,68.19
2023-03-06T11:38:47.080Z,68.91
2023-03-06T11:39:46.951Z,69.43
2023-03-06T11:40:47.930Z,68.74
2023-03-06T11:41:46.905Z,68.43
2023-03-06T11:42:48.188Z,68.94
2023-03-06T11:43:46.977Z,69.01
2023-03-06T11:44:47.057Z,69.22
2023-03-06T11:45:46.879Z,69.84
2023-03-06T11:46:46.973Z,69.12
2023-03-06T11:47:46.910Z,69.84
2023-03-06T11:48:46.777Z,70.05
2023-03-06T11:49:46.801Z,70.67
2023-03-06T11:50:46.726Z,70.05
2023-03-06T11:51:46.761Z,69.84
2023-03-06T11:52:46.949Z,69.50
2023-03-06T11:53:47.728Z,70.26
2023-03-06T11:54:46.801Z,69.53
2023-03-06T11:55:46.959Z,69.22
2023-03-06T11:56:46.814Z,69.84
2023-03-06T11:57:46.806Z,69.32
2023-03-06T11:58:46.740Z,70.26
2023-03-06T11:59:46.915Z,71.01
2023-03-06T12:00:46.871Z,71.94
2023-03-06T12:01:46.889Z,72.05
2023-03-06T12:02:46.798Z,71.94
2023-03-06T12:03:47.064Z,72.05
2023-03-06T12:04:46.951Z,71.33
2023-03-06T12:05:46.779Z,71.22
2023-03-06T12:06:46.820Z,70.18
2023-03-06T12:07:46.705Z,69.98
2023-03-06T12:08:46.859Z,70.08
2023-03-06T12:09:46.644Z,70.29
2023-03-06T12:10:51.550Z,70.08
2023-03-06T12:11:48.614Z,70.39
2023-03-06T12:12:46.765Z,70.05
2023-03-06T12:13:47.009Z,70.26
2023-03-06T12:14:46.824Z,69.95
2023-03-06T12:15:48.454Z,70.67
2023-03-06T12:16:46.735Z,70.87
2023-03-06T12:17:47.026Z,70.64
2023-03-06T12:18:46.651Z,71.26
2023-03-06T12:19:46.654Z,70.47
2023-03-06T12:20:47.039Z,70.08
2023-03-06T12:21:46.578Z,69.87
2023-03-06T12:22:57.504Z,69.98
2023-03-06T12:23:48.754Z,69.95
2023-03-06T12:24:46.681Z,69.77
2023-03-06T12:25:46.438Z,70.60
2023-03-06T12:26:46.787Z,69.84
2023-03-06T12:27:46.555Z,69.64
2023-03-06T12:28:46.645Z,69.43
2023-03-06T12:29:46.512Z,68.91
2023-03-06T12:30:46.544Z,69.53
2023-03-06T12:31:46.609Z,69.95
2023-03-06T12:32:46.593Z,70.22
2023-03-06T12:33:46.485Z,69.84
2023-03-06T12:34:46.450Z,72.02
2023-03-06T12:35:46.555Z,71.39
2023-03-06T12:36:47.014Z,71.22
2023-03-06T12:37:47.012Z,71.91
2023-03-06T12:38:46.510Z,71.94
2023-03-06T12:39:46.937Z,71.50
2023-03-06T12:40:46.743Z,72.43
2023-03-06T12:41:46.545Z,72.33
2023-03-06T12:42:46.525Z,71.19
2023-03-06T12:43:46.627Z,72.12
2023-03-06T12:44:46.647Z,72.36
2023-03-06T12:45:47.013Z,72.43
2023-03-06T12:46:46.662Z,72.02
2023-03-06T12:47:46.893Z,71.84
2023-03-06T12:48:46.790Z,71.19
2023-03-06T12:49:47.565Z,72.15
2023-03-06T12:50:47.922Z,72.36
2023-03-06T12:51:46.529Z,72.67
2023-03-06T12:52:46.608Z,72.25